Time,TemperatureF,DewpointF,PressureIn,WindDirection,WindDirectionDegrees,WindSpeedMPH,WindSpeedGustMPH,Humidity,HourlyPrecipIn,Conditions,Clouds,dailyrainin,SoftwareType,DateUTC
2013-06-29 00:00:00,59.9,59.3,29.71,East,90,0.0,0.0,98,0.00,,SKC,0.00,VWS V14.01,2013-06-29 05:00:00,
2013-06-29 00:20:00,59.9,59.3,29.71,ENE,68,0.0,0.0,98,0.00,,SKC,0.00,VWS V14.01,2013-06-29 05:20:00,
2013-06-29 00:40:00,59.9,59.3,29.71,ENE,68,0.0,3.5,98,0.00,,SKC,0.00,VWS V14.01,2013-06-29 05:40:00,
2013-06-29 01:00:00,60.1,59.5,29.71,East,90,0.0,0.0,98,0.00,,SKC,0.00,VWS V14.01,2013-06-29 06:00:00,
2013-06-29 01:20:00,60.1,59.5,29.71,ENE,68,0.0,3.5,98,0.00,,SKC,0.00,VWS V14.01,2013-06-29 06:20:00,
2013-06-29 01:40:00,59.9,59.3,29.71,ENE,68,0.0,0.0,98,0.00,,SKC,0.00,VWS V14.01,2013-06-29 06:40:00,
2013-06-29 02:00:00,60.1,59.5,29.71,ENE,68,0.0,0.0,98,0.00,,SKC,0.00,VWS V14.01,2013-06-29 07:00:00,
2013-06-29 02:20:00,60.1,59.5,29.71,ENE,68,0.0,6.3,98,0.00,,SKC,0.00,VWS V14.01,2013-06-29 07:20:00,
2013-06-29 02:40:00,60.1,59.5,29.71,ENE,68,0.0,0.0,98,0.00,,SKC,0.00,VWS V14.01,2013-06-29 07:40:00,
2013-06-29 03:00:00,60.1,59.5,29.68,ENE,68,0.0,0.0,98,0.00,,SKC,0.00,VWS V14.01,2013-06-29 08:00:00,
2013-06-29 03:20:00,60.1,59.5,29.71,NE,45,0.0,3.9,98,0.00,,SKC,0.00,VWS V14.01,2013-06-29 08:20:00,
2013-06-29 03:40:00,60.1,59.5,29.68,East,90,0.0,3.9,98,0.00,,SKC,0.00,VWS V14.01,2013-06-29 08:40:00,
2013-06-29 04:00:00,59.9,59.3,29.68,ESE,112,0.0,0.0,98,0.00,,SKC,0.00,VWS V14.01,2013-06-29 09:00:00,
2013-06-29 04:20:00,59.9,59.3,29.71,ENE,68,0.0,0.0,98,0.00,,SKC,0.00,VWS V14.01,2013-06-29 09:20:00,
2013-06-29 04:40:00,59.9,59.3,29.71,ENE,68,0.0,0.0,98,0.00,,SKC,0.00,VWS V14.01,2013-06-29 09:40:00,
2013-06-29 05:00:00,59.9,59.3,29.71,NE,45,1.3,3.5,98,0.00,,SKC,0.00,VWS V14.01,2013-06-29 10:00:00,
2013-06-29 05:20:00,59.7,59.2,29.71,ENE,68,0.0,3.9,98,0.00,,SKC,0.00,VWS V14.01,2013-06-29 10:20:00,
2013-06-29 05:40:00,59.7,59.2,29.71,ENE,68,0.0,3.5,98,0.00,,SKC,0.00,VWS V14.01,2013-06-29 10:40:00,
2013-06-29 06:00:00,59.5,59.0,29.71,ENE,68,0.0,3.5,98,0.00,,SKC,0.00,VWS V14.01,2013-06-29 11:00:00,
2013-06-29 06:20:00,59.5,59.0,29.71,ENE,68,0.0,0.0,98,0.00,,SKC,0.00,VWS V14.01,2013-06-29 11:20:00,
2013-06-29 06:40:00,59.4,58.8,29.74,ENE,68,0.0,1.6,98,0.00,,SKC,0.00,VWS V14.01,2013-06-29 11:40:00,
2013-06-29 07:00:00,59.7,59.2,29.74,ESE,112,1.3,2.7,98,0.00,,SKC,0.00,VWS V14.01,2013-06-29 12:00:00,
2013-06-29 07:20:00,60.1,59.5,29.74,East,90,0.0,2.0,98,0.00,,SKC,0.00,VWS V14.01,2013-06-29 12:20:00,
2013-06-29 07:40:00,60.6,60.1,29.76,ENE,68,0.0,2.3,98,0.00,,SKC,0.00,VWS V14.01,2013-06-29 12:40:00,
2013-06-29 08:00:00,60.6,60.1,29.74,SSE,158,0.0,3.9,98,0.00,,SKC,0.00,VWS V14.01,2013-06-29 13:00:00,
2013-06-29 08:20:00,61.2,60.3,29.76,East,90,0.0,0.0,97,0.00,,SKC,0.00,VWS V14.01,2013-06-29 13:20:00,
2013-06-29 08:40:00,61.9,60.7,29.76,ENE,68,0.0,0.0,96,0.00,,SKC,0.00,VWS V14.01,2013-06-29 13:40:00,
2013-06-29 09:00:00,62.2,60.5,29.76,NNE,22,0.0,3.9,94,0.00,,SKC,0.00,VWS V14.01,2013-06-29 14:00:00,
2013-06-29 09:20:00,63.1,61.1,29.79,ENE,68,0.0,5.1,93,0.00,,SKC,0.00,VWS V14.01,2013-06-29 14:20:00,
2013-06-29 09:40:00,64.4,61.4,29.76,North,0,2.6,7.0,90,0.00,,SKC,0.00,VWS V14.01,2013-06-29 14:40:00,
2013-06-29 10:00:00,66.4,61.1,29.76,NNE,22,2.8,6.7,83,0.00,,SKC,0.00,VWS V14.01,2013-06-29 15:00:00,
2013-06-29 10:20:00,68.2,62.1,29.76,North,0,1.5,5.5,81,0.00,,SKC,0.00,VWS V14.01,2013-06-29 15:20:00,
2013-06-29 10:40:00,68.9,61.0,29.79,NNE,22,3.3,8.6,76,0.00,,SKC,0.00,VWS V14.01,2013-06-29 15:40:00,
2013-06-29 11:00:00,68.5,60.7,29.79,ENE,68,1.3,7.4,76,0.00,,SKC,0.00,VWS V14.01,2013-06-29 16:00:00,
2013-06-29 11:20:00,68.5,59.9,29.79,NE,45,0.0,9.8,74,0.00,,SKC,0.00,VWS V14.01,2013-06-29 16:20:00,
2013-06-29 11:40:00,69.6,61.0,29.79,NNE,22,1.5,5.9,74,0.00,,SKC,0.00,VWS V14.01,2013-06-29 16:40:00,
2013-06-29 12:00:00,70.9,59.8,29.79,SE,135,3.1,11.0,68,0.00,,SKC,0.00,VWS V14.01,2013-06-29 17:00:00,
2013-06-29 12:20:00,70.9,58.5,29.82,ENE,68,2.3,8.6,65,0.00,,SKC,0.00,VWS V14.01,2013-06-29 17:20:00,
2013-06-29 12:40:00,71.6,59.2,29.82,NNE,22,6.2,12.5,65,0.00,,SKC,0.00,VWS V14.01,2013-06-29 17:40:00,
2013-06-29 13:00:00,71.1,56.0,29.85,North,0,2.8,9.4,59,0.00,,SKC,0.00,VWS V14.01,2013-06-29 18:00:00,
2013-06-29 13:20:00,71.4,56.8,29.85,NNW,338,2.3,9.4,60,0.00,,SKC,0.00,VWS V14.01,2013-06-29 18:20:00,
2013-06-29 13:40:00,71.2,58.0,29.85,NW,315,2.3,7.8,63,0.00,,SKC,0.00,VWS V14.01,2013-06-29 18:40:00,
2013-06-29 14:00:00,70.9,55.4,29.85,ENE,68,2.3,10.2,58,0.00,,SKC,0.00,VWS V14.01,2013-06-29 19:00:00,
2013-06-29 14:20:00,71.2,55.7,29.85,NNW,338,3.6,8.6,58,0.00,,SKC,0.00,VWS V14.01,2013-06-29 19:20:00,
2013-06-29 14:40:00,71.1,54.1,29.88,NNW,338,1.5,11.0,55,0.00,,SKC,0.00,VWS V14.01,2013-06-29 19:40:00,
2013-06-29 15:00:00,70.9,52.9,29.85,North,0,3.3,9.4,53,0.00,,SKC,0.00,VWS V14.01,2013-06-29 20:00:00,
2013-06-29 15:20:00,71.2,53.8,29.85,North,0,4.4,8.6,54,0.00,,SKC,0.00,VWS V14.01,2013-06-29 20:20:00,
2013-06-29 15:40:00,70.3,50.3,29.85,NW,315,3.3,10.2,49,0.00,,SKC,0.00,VWS V14.01,2013-06-29 20:40:00,
2013-06-29 16:00:00,69.6,51.8,29.85,SSW,202,2.6,7.4,53,0.00,,SKC,0.00,VWS V14.01,2013-06-29 21:00:00,
2013-06-29 16:20:00,69.4,51.6,29.88,NNE,22,3.3,6.7,53,0.00,,SKC,0.00,VWS V14.01,2013-06-29 21:20:00,
2013-06-29 16:40:00,69.6,52.3,29.85,ENE,68,1.8,8.2,54,0.00,,SKC,0.00,VWS V14.01,2013-06-29 21:40:00,
2013-06-29 17:00:00,69.1,50.2,29.88,NNE,22,3.6,8.2,51,0.00,,SKC,0.00,VWS V14.01,2013-06-29 22:00:00,
2013-06-29 17:20:00,68.4,49.5,29.88,NNE,22,3.1,7.0,51,0.00,,SKC,0.00,VWS V14.01,2013-06-29 22:20:00,
2013-06-29 17:40:00,66.9,49.2,29.88,NNE,22,2.6,7.4,53,0.00,,SKC,0.00,VWS V14.01,2013-06-29 22:40:00,
2013-06-29 18:00:00,66.6,48.9,29.88,NNE,22,3.3,6.7,53,0.00,,SKC,0.00,VWS V14.01,2013-06-29 23:00:00,
2013-06-29 18:20:00,66.0,49.4,29.88,NE,45,1.8,7.0,55,0.00,,SKC,0.00,VWS V14.01,2013-06-29 23:20:00,
2013-06-29 18:40:00,65.7,50.0,29.88,NNE,22,0.0,4.3,57,0.00,,SKC,0.00,VWS V14.01,2013-06-29 23:40:00,
2013-06-29 19:00:00,65.1,49.5,29.88,ENE,68,1.3,7.0,57,0.00,,SKC,0.00,VWS V14.01,2013-06-30 00:00:00,
2013-06-29 19:20:00,64.6,49.5,29.88,NNE,22,1.8,4.7,58,0.00,,SKC,0.00,VWS V14.01,2013-06-30 00:20:00,
2013-06-29 19:40:00,63.9,49.7,29.88,WSW,248,1.3,5.1,60,0.00,,SKC,0.00,VWS V14.01,2013-06-30 00:40:00,
2013-06-29 20:00:00,63.0,50.2,29.88,NE,45,0.0,4.7,63,0.00,,SKC,0.00,VWS V14.01,2013-06-30 01:00:00,
2013-06-29 20:20:00,61.7,48.1,29.88,NE,45,0.0,0.0,61,0.00,,SKC,0.00,VWS V14.01,2013-06-30 01:20:00,
2013-06-29 20:40:00,60.4,48.2,29.88,NE,45,0.0,0.0,64,0.00,,SKC,0.00,VWS V14.01,2013-06-30 01:40:00,
2013-06-29 21:00:00,58.8,49.1,29.88,ENE,68,0.0,0.0,70,0.00,,SKC,0.00,VWS V14.01,2013-06-30 02:00:00,
2013-06-29 21:20:00,57.4,49.2,29.88,WNW,292,0.0,3.5,74,0.00,,SKC,0.00,VWS V14.01,2013-06-30 02:20:00,
2013-06-29 21:40:00,56.3,49.9,29.88,WNW,292,0.0,2.7,79,0.00,,SKC,0.00,VWS V14.01,2013-06-30 02:40:00,
2013-06-29 22:00:00,55.2,49.5,29.88,East,90,0.0,0.0,81,0.00,,SKC,0.00,VWS V14.01,2013-06-30 03:00:00,
2013-06-29 22:20:00,54.3,49.0,29.88,ENE,68,0.0,0.0,82,0.00,,SKC,0.00,VWS V14.01,2013-06-30 03:20:00,
2013-06-29 22:40:00,53.8,49.4,29.88,ENE,68,0.0,0.0,85,0.00,,SKC,0.00,VWS V14.01,2013-06-30 03:40:00,
2013-06-29 23:00:00,53.1,49.0,29.88,ENE,68,0.0,0.0,86,0.00,,SKC,0.00,VWS V14.01,2013-06-30 04:00:00,
2013-06-29 23:20:00,52.5,49.1,29.88,ENE,68,0.0,0.0,88,0.00,,SKC,0.00,VWS V14.01,2013-06-30 04:20:00,
2013-06-29 23:40:00,52.0,48.5,29.88,ENE,68,0.0,0.0,88,0.00,,SKC,0.00,VWS V14.01,2013-06-30 04:40:00,